Carson Meadows, Nevada
Current Conditions -  °F | °C
As of 2:55 AM on Friday 31 Oct 2014 (Local Time) from KCXP Reporting Station
Clear Clear  
Wind Chill: 46°   Ceiling: Unl
Heat Index: 46°   Visibility: 7mi
Dew Point: 25°   Wind: 3mph
Humidity: 43%   Direction: 20°NNE
Pressure: 29.93"   Gusts: NA
Location:  39.1386°N, 119.659°W
Report Text: KCXP 310955Z AUTO 02003KT 7SM CLR 08/M04 A2993 RMK AO2
Loading
Personal Weather Stations






























Interactive Weather Map
Tropical Storm Tracking
New forecast layout! Learn more

10-Day Weather Forecast

Advertisements
Track Severe Weather on mobile